sensor_id;sensor_type;location;lat;lon;timestamp;pressure;altitude;pressure_sealevel;temperature;humidity
41632;BME280;37452;51.938;4.624;2023-05-22T00:00:30;76737.63;;;-142.75;100.00
41632;BME280;37452;51.938;4.624;2023-05-22T00:02:56;76739.59;;;-142.75;100.00
41632;BME280;37452;51.938;4.624;2023-05-22T00:05:21;76745.50;;;-142.75;100.00
41632;BME280;37452;51.938;4.624;2023-05-22T00:07:46;76745.50;;;-142.75;100.00
41632;BME280;37452;51.938;4.624;2023-05-22T00:10:11;76759.28;;;-142.75;100.00
41632;BME280;37452;51.938;4.624;2023-05-22T00:12:37;76761.25;;;-142.75;100.00
41632;BME280;37452;51.938;4.624;2023-05-22T00:15:03;76767.16;;;-142.75;100.00
41632;BME280;37452;51.938;4.624;2023-05-22T00:17:29;76755.34;;;-142.75;100.00
41632;BME280;37452;51.938;4.624;2023-05-22T00:19:55;76751.41;;;-142.75;100.00
41632;BME280;37452;51.938;4.624;2023-05-22T00:22:20;76759.28;;;-142.75;100.00
41632;BME280;37452;51.938;4.624;2023-05-22T00:24:45;76771.09;;;-142.75;100.00
41632;BME280;37452;51.938;4.624;2023-05-22T00:27:10;76765.19;;;-142.75;100.00
41632;BME280;37452;51.938;4.624;2023-05-22T00:29:36;76780.94;;;-142.75;100.00
41632;BME280;37452;51.938;4.624;2023-05-22T00:32:01;76775.03;;;-142.75;100.00
41632;BME280;37452;51.938;4.624;2023-05-22T00:34:26;76773.06;;;-142.75;100.00
41632;BME280;37452;51.938;4.624;2023-05-22T00:36:51;76765.19;;;-142.75;100.00
41632;BME280;37452;51.938;4.624;2023-05-22T00:39:17;76778.97;;;-142.75;100.00
41632;BME280;37452;51.938;4.624;2023-05-22T00:41:42;76771.09;;;-142.75;100.00
41632;BME280;37452;51.938;4.624;2023-05-22T00:44:07;76767.16;;;-142.75;100.00
41632;BME280;37452;51.938;4.624;2023-05-22T00:46:34;76769.13;;;-142.75;100.00
41632;BME280;37452;51.938;4.624;2023-05-22T00:48:59;76765.19;;;-142.75;100.00
41632;BME280;37452;51.938;4.624;2023-05-22T00:51:24;76757.31;;;-142.75;100.00
41632;BME280;37452;51.938;4.624;2023-05-22T00:53:50;76761.25;;;-142.75;100.00
41632;BME280;37452;51.938;4.624;2023-05-22T00:56:16;76749.44;;;-142.75;100.00
41632;BME280;37452;51.938;4.624;2023-05-22T00:58:42;76747.47;;;-142.75;100.00
41632;BME280;37452;51.938;4.624;2023-05-22T01:01:08;76759.28;;;-142.75;100.00
41632;BME280;37452;51.938;4.624;2023-05-22T01:03:35;76761.25;;;-142.75;100.00
41632;BME280;37452;51.938;4.624;2023-05-22T01:06:01;76749.44;;;-142.75;100.00
41632;BME280;37452;51.938;4.624;2023-05-22T01:08:27;76741.56;;;-142.75;100.00
41632;BME280;37452;51.938;4.624;2023-05-22T01:11:11;76743.53;;;-142.75;100.00
41632;BME280;37452;51.938;4.624;2023-05-22T01:16:28;76721.88;;;-142.75;100.00
41632;BME280;37452;51.938;4.624;2023-05-22T01:31:16;76710.06;;;-142.75;100.00
41632;BME280;37452;51.938;4.624;2023-05-22T01:33:45;76712.03;;;-142.75;100.00
41632;BME280;37452;51.938;4.624;2023-05-22T01:36:12;76733.69;;;-142.75;100.00
41632;BME280;37452;51.938;4.624;2023-05-22T01:38:39;76727.78;;;-142.75;100.00
41632;BME280;37452;51.938;4.624;2023-05-22T01:41:05;76727.78;;;-142.75;100.00
41632;BME280;37452;51.938;4.624;2023-05-22T01:43:31;76723.84;;;-142.75;100.00
41632;BME280;37452;51.938;4.624;2023-05-22T01:45:56;76731.72;;;-142.75;100.00
41632;BME280;37452;51.938;4.624;2023-05-22T01:48:21;76706.13;;;-142.75;100.00
41632;BME280;37452;51.938;4.624;2023-05-22T01:50:47;76710.06;;;-142.75;100.00
41632;BME280;37452;51.938;4.624;2023-05-22T02:00:39;76700.22;;;-142.75;100.00
41632;BME280;37452;51.938;4.624;2023-05-22T02:03:08;76690.38;;;-142.75;100.00
41632;BME280;37452;51.938;4.624;2023-05-22T02:05:37;76688.41;;;-142.75;100.00
41632;BME280;37452;51.938;4.624;2023-05-22T02:08:02;76688.41;;;-142.75;100.00
41632;BME280;37452;51.938;4.624;2023-05-22T02:10:28;76676.59;;;-142.75;100.00
41632;BME280;37452;51.938;4.624;2023-05-22T02:12:55;76684.47;;;-142.75;100.00
41632;BME280;37452;51.938;4.624;2023-05-22T02:15:20;76682.50;;;-142.75;100.00
41632;BME280;37452;51.938;4.624;2023-05-22T02:17:46;76678.56;;;-142.75;100.00
41632;BME280;37452;51.938;4.624;2023-05-22T02:20:13;76674.63;;;-142.75;100.00
41632;BME280;37452;51.938;4.624;2023-05-22T02:22:43;76672.66;;;-142.75;100.00
41632;BME280;37452;51.938;4.624;2023-05-22T02:25:09;76672.66;;;-142.75;100.00
41632;BME280;37452;51.938;4.624;2023-05-22T02:27:38;76660.84;;;-142.75;100.00
41632;BME280;37452;51.938;4.624;2023-05-22T02:30:04;76658.88;;;-142.75;100.00
41632;BME280;37452;51.938;4.624;2023-05-22T02:32:29;76672.66;;;-142.75;100.00
41632;BME280;37452;51.938;4.624;2023-05-22T02:34:55;76660.84;;;-142.75;100.00
41632;BME280;37452;51.938;4.624;2023-05-22T02:37:22;76670.69;;;-142.75;100.00
41632;BME280;37452;51.938;4.624;2023-05-22T02:39:47;76670.69;;;-142.75;100.00
41632;BME280;37452;51.938;4.624;2023-05-22T02:42:12;76660.84;;;-142.75;100.00
41632;BME280;37452;51.938;4.624;2023-05-22T02:44:38;76672.66;;;-142.75;100.00
41632;BME280;37452;51.938;4.624;2023-05-22T02:47:03;76680.53;;;-142.75;100.00
41632;BME280;37452;51.938;4.624;2023-05-22T02:49:28;76652.97;;;-142.75;100.00
41632;BME280;37452;51.938;4.624;2023-05-22T02:51:53;76676.59;;;-142.75;100.00
41632;BME280;37452;51.938;4.624;2023-05-22T02:54:19;76684.47;;;-142.75;100.00
41632;BME280;37452;51.938;4.624;2023-05-22T02:56:44;76682.50;;;-142.75;100.00
41632;BME280;37452;51.938;4.624;2023-05-22T02:59:09;76692.34;;;-142.75;100.00
41632;BME280;37452;51.938;4.624;2023-05-22T03:01:35;76688.41;;;-142.75;100.00
41632;BME280;37452;51.938;4.624;2023-05-22T03:04:00;76696.28;;;-142.75;100.00
41632;BME280;37452;51.938;4.624;2023-05-22T03:06:25;76690.38;;;-142.75;100.00
41632;BME280;37452;51.938;4.624;2023-05-22T03:08:50;76696.28;;;-142.75;100.00
41632;BME280;37452;51.938;4.624;2023-05-22T03:11:17;76721.88;;;-142.75;100.00
41632;BME280;37452;51.938;4.624;2023-05-22T03:13:42;76719.91;;;-142.75;100.00
41632;BME280;37452;51.938;4.624;2023-05-22T03:16:07;76714.00;;;-142.75;100.00
41632;BME280;37452;51.938;4.624;2023-05-22T03:18:32;76719.91;;;-142.75;100.00
41632;BME280;37452;51.938;4.624;2023-05-22T03:20:57;76719.91;;;-142.75;100.00
41632;BME280;37452;51.938;4.624;2023-05-22T03:23:23;76723.84;;;-142.75;100.00
41632;BME280;37452;51.938;4.624;2023-05-22T03:25:49;76715.97;;;-142.75;100.00
41632;BME280;37452;51.938;4.624;2023-05-22T03:28:15;76727.78;;;-142.75;100.00
41632;BME280;37452;51.938;4.624;2023-05-22T03:30:40;76715.97;;;-142.75;100.00
41632;BME280;37452;51.938;4.624;2023-05-22T03:33:05;76715.97;;;-142.75;100.00
41632;BME280;37452;51.938;4.624;2023-05-22T03:35:30;76714.00;;;-142.75;100.00
41632;BME280;37452;51.938;4.624;2023-05-22T03:37:56;76698.25;;;-142.75;100.00
41632;BME280;37452;51.938;4.624;2023-05-22T03:40:21;76712.03;;;-142.75;100.00
41632;BME280;37452;51.938;4.624;2023-05-22T03:42:46;76694.31;;;-142.75;100.00
41632;BME280;37452;51.938;4.624;2023-05-22T03:45:13;76694.31;;;-142.75;100.00
41632;BME280;37452;51.938;4.624;2023-05-22T03:47:38;76680.53;;;-142.75;100.00
41632;BME280;37452;51.938;4.624;2023-05-22T03:50:03;76680.53;;;-142.75;100.00
41632;BME280;37452;51.938;4.624;2023-05-22T03:52:28;76674.63;;;-142.75;100.00
41632;BME280;37452;51.938;4.624;2023-05-22T03:54:54;76672.66;;;-142.75;100.00
41632;BME280;37452;51.938;4.624;2023-05-22T03:57:19;76676.59;;;-142.75;100.00
41632;BME280;37452;51.938;4.624;2023-05-22T03:59:45;76684.47;;;-142.75;100.00
41632;BME280;37452;51.938;4.624;2023-05-22T04:02:10;76676.59;;;-142.75;100.00
41632;BME280;37452;51.938;4.624;2023-05-22T04:04:36;76660.84;;;-142.75;100.00
41632;BME280;37452;51.938;4.624;2023-05-22T04:07:02;76686.44;;;-142.75;100.00
41632;BME280;37452;51.938;4.624;2023-05-22T04:09:30;76668.72;;;-142.75;100.00
41632;BME280;37452;51.938;4.624;2023-05-22T04:11:55;76672.66;;;-142.75;100.00
41632;BME280;37452;51.938;4.624;2023-05-22T04:14:20;76658.88;;;-142.75;100.00
41632;BME280;37452;51.938;4.624;2023-05-22T04:16:45;76651.00;;;-142.75;100.00
41632;BME280;37452;51.938;4.624;2023-05-22T04:19:11;76649.03;;;-142.75;100.00
41632;BME280;37452;51.938;4.624;2023-05-22T04:21:38;76645.09;;;-142.75;100.00
41632;BME280;37452;51.938;4.624;2023-05-22T04:24:03;76649.03;;;-142.75;100.00
41632;BME280;37452;51.938;4.624;2023-05-22T04:26:31;76645.09;;;-142.75;100.00
41632;BME280;37452;51.938;4.624;2023-05-22T04:28:56;76637.22;;;-142.75;100.00
41632;BME280;37452;51.938;4.624;2023-05-22T04:31:21;76658.88;;;-142.75;100.00
41632;BME280;37452;51.938;4.624;2023-05-22T04:33:47;76643.13;;;-142.75;100.00
41632;BME280;37452;51.938;4.624;2023-05-22T04:36:12;76637.22;;;-142.75;100.00
41632;BME280;37452;51.938;4.624;2023-05-22T04:38:37;76633.28;;;-142.75;100.00
41632;BME280;37452;51.938;4.624;2023-05-22T04:41:02;76629.34;;;-142.75;100.00
41632;BME280;37452;51.938;4.624;2023-05-22T04:43:28;76619.50;;;-142.75;100.00
41632;BME280;37452;51.938;4.624;2023-05-22T04:45:54;76613.59;;;-142.75;100.00
41632;BME280;37452;51.938;4.624;2023-05-22T04:48:20;76613.59;;;-142.75;100.00
41632;BME280;37452;51.938;4.624;2023-05-22T04:50:46;76613.59;;;-142.75;100.00
41632;BME280;37452;51.938;4.624;2023-05-22T04:53:12;76605.72;;;-142.75;100.00
41632;BME280;37452;51.938;4.624;2023-05-22T04:55:37;76605.72;;;-142.75;100.00
41632;BME280;37452;51.938;4.624;2023-05-22T04:58:03;76611.63;;;-142.75;100.00
41632;BME280;37452;51.938;4.624;2023-05-22T05:00:29;76609.66;;;-142.75;100.00
41632;BME280;37452;51.938;4.624;2023-05-22T05:02:55;76597.84;;;-142.75;100.00
41632;BME280;37452;51.938;4.624;2023-05-22T05:05:21;76609.66;;;-142.75;100.00
41632;BME280;37452;51.938;4.624;2023-05-22T05:07:47;76629.34;;;-142.75;100.00
41632;BME280;37452;51.938;4.624;2023-05-22T05:10:13;76609.66;;;-142.75;100.00
41632;BME280;37452;51.938;4.624;2023-05-22T05:12:38;76601.78;;;-142.75;100.00
41632;BME280;37452;51.938;4.624;2023-05-22T05:15:03;76611.63;;;-142.75;100.00
41632;BME280;37452;51.938;4.624;2023-05-22T05:17:29;76591.94;;;-142.75;100.00
41632;BME280;37452;51.938;4.624;2023-05-22T05:19:54;76597.84;;;-142.75;100.00
41632;BME280;37452;51.938;4.624;2023-05-22T05:22:19;76601.78;;;-142.75;100.00
41632;BME280;37452;51.938;4.624;2023-05-22T05:24:44;76597.84;;;-142.75;100.00
41632;BME280;37452;51.938;4.624;2023-05-22T05:27:10;76586.03;;;-142.75;100.00
41632;BME280;37452;51.938;4.624;2023-05-22T05:29:35;76593.91;;;-142.75;100.00
41632;BME280;37452;51.938;4.624;2023-05-22T05:32:00;76589.97;;;-142.75;100.00
41632;BME280;37452;51.938;4.624;2023-05-22T05:34:25;76597.84;;;-142.75;100.00
41632;BME280;37452;51.938;4.624;2023-05-22T05:36:51;76586.03;;;-142.75;100.00
41632;BME280;37452;51.938;4.624;2023-05-22T05:39:16;76576.19;;;-142.75;100.00
41632;BME280;37452;51.938;4.624;2023-05-22T05:41:41;76578.16;;;-142.75;100.00
41632;BME280;37452;51.938;4.624;2023-05-22T05:44:07;76562.41;;;-142.75;100.00
41632;BME280;37452;51.938;4.624;2023-05-22T05:46:32;76574.22;;;-142.75;100.00
41632;BME280;37452;51.938;4.624;2023-05-22T05:48:57;76572.25;;;-142.75;100.00
41632;BME280;37452;51.938;4.624;2023-05-22T05:51:22;76566.34;;;-142.75;100.00
41632;BME280;37452;51.938;4.624;2023-05-22T05:53:48;76586.03;;;-142.75;100.00
41632;BME280;37452;51.938;4.624;2023-05-22T05:56:13;76582.09;;;-142.75;100.00
41632;BME280;37452;51.938;4.624;2023-05-22T05:58:39;76570.28;;;-142.75;100.00
41632;BME280;37452;51.938;4.624;2023-05-22T06:01:04;76558.47;;;-142.75;100.00
41632;BME280;37452;51.938;4.624;2023-05-22T06:03:29;76546.66;;;-142.75;100.00
41632;BME280;37452;51.938;4.624;2023-05-22T06:05:55;76546.66;;;-142.75;100.00
41632;BME280;37452;51.938;4.624;2023-05-22T06:08:21;76550.59;;;-142.75;100.00
41632;BME280;37452;51.938;4.624;2023-05-22T06:10:46;76550.59;;;-142.75;100.00
41632;BME280;37452;51.938;4.624;2023-05-22T06:13:12;76530.91;;;-142.75;100.00
41632;BME280;37452;51.938;4.624;2023-05-22T06:15:38;76515.19;;;-142.75;100.00
41632;BME280;37452;51.938;4.624;2023-05-22T06:18:03;76507.31;;;-142.75;100.00
41632;BME280;37452;51.938;4.624;2023-05-22T06:20:29;76483.69;;;-142.75;100.00
41632;BME280;37452;51.938;4.624;2023-05-22T06:22:54;76487.63;;;-142.75;100.00
41632;BME280;37452;51.938;4.624;2023-05-22T06:25:19;76464.00;;;-142.75;100.00
41632;BME280;37452;51.938;4.624;2023-05-22T06:27:44;76456.13;;;-142.75;100.00
41632;BME280;37452;51.938;4.624;2023-05-22T06:30:10;76448.25;;;-142.75;100.00
41632;BME280;37452;51.938;4.624;2023-05-22T06:32:36;76446.28;;;-142.75;100.00
41632;BME280;37452;51.938;4.624;2023-05-22T06:35:01;76454.16;;;-142.75;100.00
41632;BME280;37452;51.938;4.624;2023-05-22T06:37:27;76475.81;;;-142.75;100.00
41632;BME280;37452;51.938;4.624;2023-05-22T06:39:52;76464.00;;;-142.75;100.00
41632;BME280;37452;51.938;4.624;2023-05-22T06:42:17;76464.00;;;-142.75;100.00
41632;BME280;37452;51.938;4.624;2023-05-22T06:44:42;76454.16;;;-142.75;100.00
41632;BME280;37452;51.938;4.624;2023-05-22T06:47:08;76430.53;;;-142.75;100.00
41632;BME280;37452;51.938;4.624;2023-05-22T06:49:33;76436.44;;;-142.75;100.00
41632;BME280;37452;51.938;4.624;2023-05-22T06:51:58;76436.44;;;-142.75;100.00
41632;BME280;37452;51.938;4.624;2023-05-22T06:54:23;76432.50;;;-142.75;100.00
41632;BME280;37452;51.938;4.624;2023-05-22T06:56:52;76416.75;;;-142.75;100.00
41632;BME280;37452;51.938;4.624;2023-05-22T06:59:18;76408.88;;;-142.75;100.00
41632;BME280;37452;51.938;4.624;2023-05-22T07:01:44;76406.91;;;-142.75;100.00
41632;BME280;37452;51.938;4.624;2023-05-22T07:04:09;76361.63;;;-142.75;100.00
41632;BME280;37452;51.938;4.624;2023-05-22T07:06:35;76353.78;;;-142.75;100.00
41632;BME280;37452;51.938;4.624;2023-05-22T07:09:06;76353.78;;;-142.75;100.00
41632;BME280;37452;51.938;4.624;2023-05-22T07:11:31;76361.63;;;-142.75;100.00
41632;BME280;37452;51.938;4.624;2023-05-22T07:13:57;76349.81;;;-142.75;100.00
41632;BME280;37452;51.938;4.624;2023-05-22T07:16:22;76338.03;;;-142.75;100.00
41632;BME280;37452;51.938;4.624;2023-05-22T07:18:47;76353.78;;;-142.75;100.00
41632;BME280;37452;51.938;4.624;2023-05-22T07:21:12;76349.81;;;-142.75;100.00
41632;BME280;37452;51.938;4.624;2023-05-22T07:23:38;76361.63;;;-142.75;100.00
41632;BME280;37452;51.938;4.624;2023-05-22T07:26:03;76351.81;;;-142.75;100.00
41632;BME280;37452;51.938;4.624;2023-05-22T07:28:28;76326.22;;;-142.75;100.00
41632;BME280;37452;51.938;4.624;2023-05-22T07:30:53;76304.56;;;-142.75;100.00
41632;BME280;37452;51.938;4.624;2023-05-22T07:33:19;76261.25;;;-142.75;100.00
41632;BME280;37452;51.938;4.624;2023-05-22T07:35:44;76225.81;;;-142.75;100.00
41632;BME280;37452;51.938;4.624;2023-05-22T07:38:10;76208.09;;;-142.75;100.00
41632;BME280;37452;51.938;4.624;2023-05-22T07:40:35;76198.28;;;-142.75;100.00
41632;BME280;37452;51.938;4.624;2023-05-22T07:43:00;76200.25;;;-142.75;100.00
41632;BME280;37452;51.938;4.624;2023-05-22T07:45:25;76172.69;;;-142.75;100.00
41632;BME280;37452;51.938;4.624;2023-05-22T07:47:50;76180.56;;;-142.75;100.00
41632;BME280;37452;51.938;4.624;2023-05-22T07:50:16;76149.06;;;-142.75;100.00
41632;BME280;37452;51.938;4.624;2023-05-22T07:52:41;76133.31;;;-142.75;100.00
41632;BME280;37452;51.938;4.624;2023-05-22T07:55:07;76109.69;;;-142.75;100.00
41632;BME280;37452;51.938;4.624;2023-05-22T07:57:33;76088.03;;;-142.75;100.00
41632;BME280;37452;51.938;4.624;2023-05-22T08:00:00;76086.06;;;-142.75;100.00
41632;BME280;37452;51.938;4.624;2023-05-22T08:02:36;76062.47;;;-142.75;100.00
41632;BME280;37452;51.938;4.624;2023-05-22T08:05:01;76034.91;;;-142.75;100.00
41632;BME280;37452;51.938;4.624;2023-05-22T08:07:28;76036.88;;;-142.75;100.00
41632;BME280;37452;51.938;4.624;2023-05-22T08:09:53;76023.09;;;-142.75;100.00
41632;BME280;37452;51.938;4.624;2023-05-22T08:12:18;75995.53;;;-142.75;100.00
41632;BME280;37452;51.938;4.624;2023-05-22T08:14:43;76029.00;;;-142.75;100.00
41632;BME280;37452;51.938;4.624;2023-05-22T08:17:09;75967.97;;;-142.75;100.00
41632;BME280;37452;51.938;4.624;2023-05-22T08:19:34;75936.50;;;-142.75;100.00
41632;BME280;37452;51.938;4.624;2023-05-22T08:22:00;75906.97;;;-142.75;100.00
41632;BME280;37452;51.938;4.624;2023-05-22T08:24:25;75889.25;;;-142.75;100.00
41632;BME280;37452;51.938;4.624;2023-05-22T08:26:52;75883.34;;;-142.75;100.00
41632;BME280;37452;51.938;4.624;2023-05-22T08:29:17;75910.91;;;-142.75;100.00
41632;BME280;37452;51.938;4.624;2023-05-22T08:31:43;75879.41;;;-142.75;100.00
41632;BME280;37452;51.938;4.624;2023-05-22T08:34:08;75849.91;;;-142.75;100.00
41632;BME280;37452;51.938;4.624;2023-05-22T08:36:34;75840.06;;;-142.75;100.00
41632;BME280;37452;51.938;4.624;2023-05-22T08:38:59;75845.97;;;-142.75;100.00
41632;BME280;37452;51.938;4.624;2023-05-22T08:41:25;75818.41;;;-142.75;100.00
41632;BME280;37452;51.938;4.624;2023-05-22T08:43:50;75790.84;;;-142.75;100.00
41632;BME280;37452;51.938;4.624;2023-05-22T08:46:16;75781.00;;;-142.75;100.00
41632;BME280;37452;51.938;4.624;2023-05-22T08:48:44;75771.16;;;-142.75;100.00
41632;BME280;37452;51.938;4.624;2023-05-22T08:51:10;75757.41;;;-142.75;100.00
41632;BME280;37452;51.938;4.624;2023-05-22T08:53:37;75727.88;;;-142.75;100.00
41632;BME280;37452;51.938;4.624;2023-05-22T08:56:06;75723.94;;;-142.75;100.00
41632;BME280;37452;51.938;4.624;2023-05-22T08:58:33;75696.38;;;-142.75;100.00
41632;BME280;37452;51.938;4.624;2023-05-22T09:00:58;75692.44;;;-142.75;100.00
41632;BME280;37452;51.938;4.624;2023-05-22T09:03:25;75653.09;;;-142.75;100.00
41632;BME280;37452;51.938;4.624;2023-05-22T09:05:52;75668.84;;;-142.75;100.00
41632;BME280;37452;51.938;4.624;2023-05-22T09:08:17;75668.84;;;-142.75;100.00
41632;BME280;37452;51.938;4.624;2023-05-22T09:10:42;75670.81;;;-142.75;100.00
41632;BME280;37452;51.938;4.624;2023-05-22T09:13:08;75651.13;;;-142.75;100.00
41632;BME280;37452;51.938;4.624;2023-05-22T09:15:34;75672.78;;;-142.75;100.00
41632;BME280;37452;51.938;4.624;2023-05-22T09:17:59;75692.44;;;-142.75;99.30
41632;BME280;37452;51.938;4.624;2023-05-22T09:20:26;75672.78;;;-142.75;100.00
41632;BME280;37452;51.938;4.624;2023-05-22T09:22:51;75664.91;;;-142.75;100.00
41632;BME280;37452;51.938;4.624;2023-05-22T09:25:17;75643.25;;;-142.75;99.27
41632;BME280;37452;51.938;4.624;2023-05-22T09:27:49;75649.16;;;-142.75;99.54
41632;BME280;37452;51.938;4.624;2023-05-22T09:30:15;75599.94;;;-142.75;100.00
41632;BME280;37452;51.938;4.624;2023-05-22T09:32:41;75601.91;;;-142.75;99.49
41632;BME280;37452;51.938;4.624;2023-05-22T09:35:06;75570.44;;;-142.75;96.13
41632;BME280;37452;51.938;4.624;2023-05-22T09:37:32;75554.69;;;-142.75;94.24
41632;BME280;37452;51.938;4.624;2023-05-22T09:39:59;75538.94;;;-142.75;92.14
41632;BME280;37452;51.938;4.624;2023-05-22T09:42:27;75519.25;;;-142.75;91.80
41632;BME280;37452;51.938;4.624;2023-05-22T09:44:53;75509.44;;;-142.75;93.87
41632;BME280;37452;51.938;4.624;2023-05-22T09:47:18;75487.78;;;-142.75;94.27
41632;BME280;37452;51.938;4.624;2023-05-22T09:49:43;75499.59;;;-142.75;94.76
41632;BME280;37452;51.938;4.624;2023-05-22T09:52:09;75483.84;;;-142.75;90.35
41632;BME280;37452;51.938;4.624;2023-05-22T09:54:38;75487.78;;;-142.75;90.27
41632;BME280;37452;51.938;4.624;2023-05-22T09:57:05;75487.78;;;-142.75;91.87
41632;BME280;37452;51.938;4.624;2023-05-22T09:59:32;75472.03;;;-142.75;90.84
41632;BME280;37452;51.938;4.624;2023-05-22T10:01:59;75483.84;;;-142.75;92.38
41632;BME280;37452;51.938;4.624;2023-05-22T10:04:26;75466.13;;;-142.75;93.67
41632;BME280;37452;51.938;4.624;2023-05-22T10:06:53;75450.38;;;-142.75;91.00
41632;BME280;37452;51.938;4.624;2023-05-22T10:09:20;75464.16;;;-142.75;91.58
41632;BME280;37452;51.938;4.624;2023-05-22T10:11:47;75466.13;;;-142.75;90.74
41632;BME280;37452;51.938;4.624;2023-05-22T10:14:13;75472.03;;;-142.75;87.22
41632;BME280;37452;51.938;4.624;2023-05-22T10:16:39;75432.69;;;-142.75;90.36
41632;BME280;37452;51.938;4.624;2023-05-22T10:19:06;75434.66;;;-142.75;86.83
41632;BME280;37452;51.938;4.624;2023-05-22T10:21:32;75460.22;;;-142.75;87.52
41632;BME280;37452;51.938;4.624;2023-05-22T10:23:58;75424.81;;;-142.75;89.47
41632;BME280;37452;51.938;4.624;2023-05-22T10:26:24;75377.56;;;-142.75;86.39
41632;BME280;37452;51.938;4.624;2023-05-22T10:28:58;75346.09;;;-142.75;86.20
41632;BME280;37452;51.938;4.624;2023-05-22T10:31:35;75324.44;;;-142.75;83.05
41632;BME280;37452;51.938;4.624;2023-05-22T10:34:01;75328.38;;;-142.75;83.32
41632;BME280;37452;51.938;4.624;2023-05-22T10:36:43;75302.78;;;-142.75;84.63
41632;BME280;37452;51.938;4.624;2023-05-22T10:41:40;75330.34;;;-142.75;84.34
41632;BME280;37452;51.938;4.624;2023-05-22T10:44:05;75318.53;;;-142.75;82.02
41632;BME280;37452;51.938;4.624;2023-05-22T10:46:31;75332.31;;;-142.75;83.08
41632;BME280;37452;51.938;4.624;2023-05-22T10:48:57;75338.22;;;-142.75;84.23
41632;BME280;37452;51.938;4.624;2023-05-22T10:51:22;75306.72;;;-142.75;81.95
41632;BME280;37452;51.938;4.624;2023-05-22T10:53:55;75304.75;;;-142.75;81.05
41632;BME280;37452;51.938;4.624;2023-05-22T10:56:21;75285.09;;;-142.75;82.54
41632;BME280;37452;51.938;4.624;2023-05-22T10:58:56;75298.84;;;-142.75;84.08
41632;BME280;37452;51.938;4.624;2023-05-22T11:01:24;75291.00;;;-142.75;83.14
41632;BME280;37452;51.938;4.624;2023-05-22T11:03:49;75310.66;;;-142.75;84.83
41632;BME280;37452;51.938;4.624;2023-05-22T11:09:15;75281.16;;;-142.75;83.41
41632;BME280;37452;51.938;4.624;2023-05-22T11:11:41;75304.75;;;-142.75;84.38
41632;BME280;37452;51.938;4.624;2023-05-22T11:14:06;75365.75;;;-142.75;87.89
41632;BME280;37452;51.938;4.624;2023-05-22T11:16:32;75340.19;;;-142.75;85.53
41632;BME280;37452;51.938;4.624;2023-05-22T11:19:01;75332.31;;;-142.75;83.84
41632;BME280;37452;51.938;4.624;2023-05-22T11:21:29;75281.16;;;-142.75;85.33
41632;BME280;37452;51.938;4.624;2023-05-22T11:23:58;75243.75;;;-142.75;82.69
41632;BME280;37452;51.938;4.624;2023-05-22T11:26:23;75243.75;;;-142.75;83.48
41632;BME280;37452;51.938;4.624;2023-05-22T11:28:49;75204.41;;;-142.75;82.29
41632;BME280;37452;51.938;4.624;2023-05-22T11:31:15;75165.03;;;-142.75;79.79
41632;BME280;37452;51.938;4.624;2023-05-22T11:33:41;75174.88;;;-142.75;80.04
41632;BME280;37452;51.938;4.624;2023-05-22T11:36:07;75188.66;;;-142.75;81.66
41632;BME280;37452;51.938;4.624;2023-05-22T11:38:32;75182.75;;;-142.75;78.84
41632;BME280;37452;51.938;4.624;2023-05-22T11:40:58;75196.53;;;-142.75;78.68
41632;BME280;37452;51.938;4.624;2023-05-22T11:43:27;75176.84;;;-142.75;81.45
41632;BME280;37452;51.938;4.624;2023-05-22T11:45:52;75200.47;;;-142.75;78.13
41632;BME280;37452;51.938;4.624;2023-05-22T11:48:18;75165.03;;;-142.75;79.92
41632;BME280;37452;51.938;4.624;2023-05-22T11:50:44;75198.50;;;-142.75;80.54
41632;BME280;37452;51.938;4.624;2023-05-22T11:53:09;75165.03;;;-142.75;79.11
41632;BME280;37452;51.938;4.624;2023-05-22T11:55:34;75161.13;;;-142.75;79.14
41632;BME280;37452;51.938;4.624;2023-05-22T11:57:59;75165.03;;;-142.75;78.68
41632;BME280;37452;51.938;4.624;2023-05-22T12:00:26;75149.31;;;-142.75;78.13
41632;BME280;37452;51.938;4.624;2023-05-22T12:02:53;75180.78;;;-142.75;79.74
41632;BME280;37452;51.938;4.624;2023-05-22T12:05:19;75153.25;;;-142.75;78.82
41632;BME280;37452;51.938;4.624;2023-05-22T12:07:44;75125.69;;;-142.75;78.78
41632;BME280;37452;51.938;4.624;2023-05-22T12:10:09;75237.84;;;-142.75;78.32
41632;BME280;37452;51.938;4.624;2023-05-22T12:12:35;75281.16;;;-142.75;81.72
41632;BME280;37452;51.938;4.624;2023-05-22T12:15:03;75275.25;;;-142.75;83.14
41632;BME280;37452;51.938;4.624;2023-05-22T12:17:28;75235.88;;;-142.75;81.48
41632;BME280;37452;51.938;4.624;2023-05-22T12:19:54;75237.84;;;-142.75;82.15
41632;BME280;37452;51.938;4.624;2023-05-22T12:22:19;75208.34;;;-142.75;82.01
41632;BME280;37452;51.938;4.624;2023-05-22T12:24:46;75212.28;;;-142.75;81.68
41632;BME280;37452;51.938;4.624;2023-05-22T12:27:15;75212.28;;;-142.75;80.84
41632;BME280;37452;51.938;4.624;2023-05-22T12:29:41;75206.38;;;-142.75;80.31
41632;BME280;37452;51.938;4.624;2023-05-22T12:32:07;75229.97;;;-142.75;79.62
41632;BME280;37452;51.938;4.624;2023-05-22T12:34:34;75224.09;;;-142.75;80.69
41632;BME280;37452;51.938;4.624;2023-05-22T12:36:59;75224.09;;;-142.75;81.08
41632;BME280;37452;51.938;4.624;2023-05-22T12:39:26;75192.59;;;-142.75;80.11
41632;BME280;37452;51.938;4.624;2023-05-22T12:41:51;75202.44;;;-142.75;79.91
41632;BME280;37452;51.938;4.624;2023-05-22T12:44:17;75210.31;;;-142.75;79.51
41632;BME280;37452;51.938;4.624;2023-05-22T12:46:42;75202.44;;;-142.75;82.97
41632;BME280;37452;51.938;4.624;2023-05-22T12:49:07;75210.31;;;-142.75;80.63
41632;BME280;37452;51.938;4.624;2023-05-22T12:51:34;75220.16;;;-142.75;79.90
41632;BME280;37452;51.938;4.624;2023-05-22T12:54:03;75259.50;;;-142.75;81.88